Home > Products > Valid Products > TAF

000
FTUS45 KPSR 301738
TAFIWA
TAF
KIWA 301738Z 3018/3118 13005KT P6SM SCT120 BKN200
     FM302000 21006KT P6SM SCT100 SCT200
     FM310300 03006KT P6SM VCSH FEW090 SCT120 BKN200=



000
FTUS45 KPSR 301738
TAFBLH
TAF
KBLH 301738Z 3018/3118 17007KT P6SM FEW090 SCT150 BKN200
     FM302200 15008KT P6SM VCTS SCT100CB SCT200
     FM310300 19006KT P6SM FEW090 SCT150 BKN200
     FM311200 06005KT P6SM BKN250=



000
FTUS45 KPSR 301738
TAFIPL
TAF
KIPL 301738Z 3018/3118 14005KT P6SM SCT150 SCT200
     FM302100 14006KT P6SM SCT150 BKN200
     FM310400 17006KT P6SM SCT150 SCT200
     FM311200 14004KT P6SM BKN250=



000
FTUS45 KPSR 301738
TAFPHX
TAF
KPHX 301738Z 3018/3118 05008KT P6SM SCT140 BKN220
     FM302000 13006KT P6SM FEW080 SCT120 SCT200=



000
FTUS45 KPSR 301738
TAFIWA
TAF
KIWA 301738Z 3018/3118 13005KT P6SM SCT120 BKN200
     FM302000 21006KT P6SM SCT100 SCT200
     FM310300 03006KT P6SM VCSH FEW090 SCT120 BKN200=



000
FTUS45 KPSR 301437 AAA
TAFPHX
TAF AMD
KPHX 301437Z 3015/3112 09012KT P6SM SCT140 BKN220
     FM302000 27007KT P6SM FEW080 SCT120 SCT200
     FM310400 18008KT P6SM FEW090 SCT120 BKN200=



000
FTUS45 KPSR 301120
TAFIWA
TAF
KIWA 301120Z 3012/3112 10007KT P6SM SCT120 BKN200
     FM302000 28007KT P6SM SCT100 SCT200
     FM310300 14008KT P6SM VCSH FEW090 SCT120 BKN200
     FM310800 10006KT P6SM SCT120 BKN200
      AMD LTD TO CLD VIS AND WIND TIL 301300=



000
FTUS45 KPSR 301120
TAFBLH
TAF
KBLH 301120Z 3012/3112 17008KT P6SM FEW090 SCT150 BKN200
     FM302200 09006KT P6SM VCTS SCT100CB SCT200
     FM310300 21006KT P6SM FEW090 SCT150 BKN200=



000
FTUS45 KPSR 301120
TAFIPL
TAF
KIPL 301120Z 3012/3112 10006KT P6SM SCT150 SCT200
     FM302100 13006KT P6SM SCT150 BKN200
     FM310400 24005KT P6SM SCT150 SCT200=



000
FTUS45 KPSR 301120
TAFIWA
TAF
KIWA 301120Z 3012/3112 10007KT P6SM SCT120 BKN200
     FM302000 28007KT P6SM SCT100 SCT200
     FM310300 14008KT P6SM VCSH FEW090 SCT120 BKN200
     FM310800 10006KT P6SM SCT120 BKN200
      AMD LTD TO CLD VIS AND WIND TIL 301300=



000
FTUS45 KPSR 301120
TAFPHX
TAF
KPHX 301120Z 3012/3112 11007KT P6SM SCT140 BKN220
     FM302000 27007KT P6SM FEW080 SCT120 SCT200
     FM310400 16009KT P6SM FEW090 SCT120 BKN200=



000
FTUS45 KPSR 300845 AAA
TAFPHX
TAF AMD
KPHX 300845Z 3009/3106 08009KT P6SM SCT140 BKN220
     FM302000 28007KT P6SM FEW090 SCT120 SCT200
     FM310400 14008KT P6SM FEW090 SCT120 BKN200=



000
FTUS45 KPSR 300520
TAFPHX
TAF
KPHX 300520Z 3006/3106 10007KT P6SM FEW090 SCT120 BKN200
     FM301800 28007KT P6SM FEW090 SCT120 SCT200
     FM310400 14008KT P6SM FEW090 SCT120 BKN200=



000
FTUS45 KPSR 300520
TAFIPL
TAF
KIPL 300520Z 3006/3106 14007KT P6SM SCT150 BKN200
     FM301200 VRB03KT P6SM SCT150 BKN200
     FM302100 13006KT P6SM SCT150 BKN200=



000
FTUS45 KPSR 300520
TAFIWA
TAF
KIWA 300520Z 3006/3106 12007KT P6SM FEW090 SCT120 BKN200
     FM301800 25007KT P6SM FEW090 SCT120 SCT200
     FM310400 14008KT P6SM FEW090 SCT120 BKN200
      AMD LTD TO CLD VIS AND WIND TIL 301300=



000
FTUS45 KPSR 300520
TAFIWA
TAF
KIWA 300520Z 3006/3106 12007KT P6SM FEW090 SCT120 BKN200
     FM301800 25007KT P6SM FEW090 SCT120 SCT200
     FM310400 14008KT P6SM FEW090 SCT120 BKN200
      AMD LTD TO CLD VIS AND WIND TIL 301300=



000
FTUS45 KPSR 300520
TAFIPL
TAF
KIPL 300520Z 3006/3106 14007KT P6SM SCT150 BKN200
     FM301200 VRB03KT P6SM SCT150 BKN200
     FM302100 13006KT P6SM SCT150 BKN200=



000
FTUS45 KPSR 300520
TAFIWA
TAF
KIWA 300520Z 3006/3106 12007KT P6SM FEW090 SCT120 BKN200
     FM301800 25007KT P6SM FEW090 SCT120 SCT200
     FM310400 14008KT P6SM FEW090 SCT120 BKN200
      AMD LTD TO CLD VIS AND WIND TIL 301300=



000
FTUS45 KPSR 300520
TAFIWA
TAF
KIWA 300520Z 3006/3106 12007KT P6SM FEW090 SCT120 BKN200
     FM301800 25007KT P6SM FEW090 SCT120 SCT200
     FM310400 14008KT P6SM FEW090 SCT120 BKN200
      AMD LTD TO CLD VIS AND WIND TIL 301300=



000
FTUS45 KPSR 300520
TAFBLH
TAF
KBLH 300520Z 3006/3106 VRB03KT P6SM SCT150 BKN200
     FM302100 17008KT P6SM FEW090 SCT150 BKN200
     FM310400 21006KT P6SM FEW090 SCT150 BKN200=



000
FTUS45 KPSR 300520
TAFBLH
TAF
KBLH 300520Z 3006/3106 VRB03KT P6SM SCT150 BKN200
     FM302100 17008KT P6SM FEW090 SCT150 BKN200
     FM310400 21006KT P6SM FEW090 SCT150 BKN200=



000
FTUS45 KPSR 300520
TAFPHX
TAF
KPHX 300520Z 3006/3106 10007KT P6SM FEW090 SCT120 BKN200
     FM301800 28007KT P6SM FEW090 SCT120 SCT200
     FM310400 14008KT P6SM FEW090 SCT120 BKN200=



000
FTUS45 KPSR 300427 AAF
TAFPHX
TAF AMD
KPHX 300427Z 3004/3024 09008KT P6SM FEW090 BKN150 BKN200
     FM300600 10005KT P6SM SCT150 BKN200
     FM301800 28007KT P6SM FEW150 SCT200=



000
FTUS45 KPSR 300221 AAE
TAFPHX
TAF AMD
KPHX 300221Z 3002/3024 27004KT P6SM FEW100 SCT150 BKN200
     FM300230 09012G24KT P6SM SCT090 BKN150 BKN200
     FM300330 09008KT P6SM VCSH SCT090 BKN150 BKN200
     FM300600 10005KT P6SM SCT150 BKN200
     FM301800 28007KT P6SM FEW150 SCT200=



000
FTUS45 KPSR 300221 AAE
TAFPHX
TAF AMD
KPHX 300221Z 3002/3024 27004KT P6SM FEW100 SCT150 BKN200
     FM300230 09012G24KT P6SM SCT090 BKN150 BKN200
     FM300330 09008KT P6SM VCSH SCT090 BKN150 BKN200
     FM300600 10005KT P6SM SCT150 BKN200
     FM301800 28007KT P6SM FEW150 SCT200=



000
FTUS45 KPSR 300219 AAD
TAFPHX
TAF AMD
KPHX 300219Z 3002/3024 27004KT P6SM FEW100 SCT150 BKN200
     FM300230 09012KT P6SM VCSH SCT090 BKN150 BKN200
     FM300600 10005KT P6SM SCT150 BKN200
     FM301800 28007KT P6SM FEW150 SCT200=



000
FTUS45 KPSR 300153 AAC
TAFPHX
TAF AMD
KPHX 300153Z 3002/3024 27004KT P6SM FEW100 SCT150 BKN200
     FM300300 09010KT P6SM VCSH SCT090 BKN150 BKN200
     FM300600 10005KT P6SM SCT150 BKN200
     FM301800 28007KT P6SM FEW150 SCT200=



000
FTUS45 KPSR 300134 AAB
TAFPHX
TAF AMD
KPHX 300134Z 3002/3024 27004KT P6SM FEW090 SCT150 BKN250
     FM300230 06010KT P6SM FEW100 SCT150 BKN200
     FM300300 VRB05KT P6SM VCSH SCT090 BKN150 BKN200
     FM300600 10005KT P6SM SCT150 BKN200
     FM301800 28007KT P6SM FEW150 SCT200=



000
FTUS45 KPSR 300113 AAA
TAFIWA
TAF AMD
KIWA 300113Z 3001/3024 29009KT P6SM FEW090 SCT150 BKN250
     FM300200 06018G28KT 5SM BLDU VCSH SCT090 BKN150 BKN200
     FM300300 10007KT P6SM SCT150 BKN200
     FM301800 26007KT P6SM FEW150 SCT200
      AMD LTD TO CLD VIS AND WIND 3003/3013=



000
FTUS45 KPSR 300113 AAA
TAFIWA
TAF AMD
KIWA 300113Z 3001/3024 29009KT P6SM FEW090 SCT150 BKN250
     FM300200 06018G28KT 5SM BLDU VCSH SCT090 BKN150 BKN200
     FM300300 10007KT P6SM SCT150 BKN200
     FM301800 26007KT P6SM FEW150 SCT200
      AMD LTD TO CLD VIS AND WIND 3003/3013=



000
FTUS45 KPSR 300113 AAA
TAFIWA
TAF AMD
KIWA 300113Z 3001/3024 29009KT P6SM FEW090 SCT150 BKN250
     FM300200 06018G28KT 5SM BLDU VCSH SCT090 BKN150 BKN200
     FM300300 10007KT P6SM SCT150 BKN200
     FM301800 26007KT P6SM FEW150 SCT200
      AMD LTD TO CLD VIS AND WIND 3003/3013=



000
FTUS45 KPSR 300113 AAA
TAFIWA
TAF AMD
KIWA 300113Z 3001/3024 29009KT P6SM FEW090 SCT150 BKN250
     FM300200 06018G28KT 5SM BLDU VCSH SCT090 BKN150 BKN200
     FM300300 10007KT P6SM SCT150 BKN200
     FM301800 26007KT P6SM FEW150 SCT200
      AMD LTD TO CLD VIS AND WIND 3003/3013=



000
FTUS45 KPSR 300101 AAA
TAFPHX
TAF AMD
KPHX 300101Z 3001/3024 29009KT P6SM FEW090 SCT150 BKN250
     FM300200 04012KT P6SM FEW100 SCT150 BKN200
     FM300400 VRB05KT P6SM VCSH SCT090 BKN150 BKN200
     FM300600 10005KT P6SM SCT150 BKN200
     FM301800 28007KT P6SM FEW150 SCT200=



000
FTUS45 KPSR 292339 CCA
TAFIWA
TAF COR
KIWA 292339Z 3000/3024 29009KT P6SM FEW090 SCT150 BKN250
     FM300400 VRB05KT P6SM VCSH SCT090 BKN150 BKN200
     FM300500 10010KT P6SM SCT150 BKN200
     FM300700 VRB03KT P6SM SCT150 BKN200
     FM301800 26007KT P6SM FEW150 SCT200
      AMD LTD TO CLD VIS AND WIND 3003/3013=



000
FTUS45 KPSR 292339 CCA
TAFIWA
TAF COR
KIWA 292339Z 3000/3024 29009KT P6SM FEW090 SCT150 BKN250
     FM300400 VRB05KT P6SM VCSH SCT090 BKN150 BKN200
     FM300500 10010KT P6SM SCT150 BKN200
     FM300700 VRB03KT P6SM SCT150 BKN200
     FM301800 26007KT P6SM FEW150 SCT200
      AMD LTD TO CLD VIS AND WIND 3003/3013=



000
FTUS45 KPSR 292331
TAFPHX
TAF
KPHX 292331Z 3000/3024 29009KT P6SM FEW090 SCT150 BKN250
     FM300400 VRB05KT P6SM VCSH SCT090 BKN150 BKN200
     FM300600 10010KT P6SM SCT150 BKN200
     FM300800 VRB03KT P6SM SCT150 BKN200
     FM301800 28007KT P6SM FEW150 SCT200=



000
FTUS45 KPSR 292331
TAFBLH
TAF
KBLH 292331Z 3000/3024 18008KT P6SM FEW090 SCT150 BKN250
     FM300800 VRB03KT P6SM SCT150 BKN200
     FM301800 15007KT P6SM FEW150 SCT200=



000
FTUS45 KPSR 292331
TAFIPL
TAF
KIPL 292331Z 3000/3024 13007KT P6SM FEW090 SCT150 BKN250=



000
FTUS45 KPSR 292331
TAFIWA
TAF
KIWA 292331Z 3000/3024 29009KT P6SM FEW090 SCT150 BKN250
     FM300400 VRB05KT P6SM VCSH SCT090 BKN150 BKN200
     FM300500 10010KT P6SM SCT150 BKN200
     FM300700 VRB03KT P6SM SCT150 BKN200
     FM301800 26007KT P6SM FEW150 SCT200=



000
FTUS45 KPSR 292331
TAFIWA
TAF
KIWA 292331Z 3000/3024 29009KT P6SM FEW090 SCT150 BKN250
     FM300400 VRB05KT P6SM VCSH SCT090 BKN150 BKN200
     FM300500 10010KT P6SM SCT150 BKN200
     FM300700 VRB03KT P6SM SCT150 BKN200
     FM301800 26007KT P6SM FEW150 SCT200=



000
FTUS45 KPSR 292116 AAA
TAFBLH
TAF AMD
KBLH 292116Z 2921/3018 19012G20KT P6SM VCSH SCT100 BKN150 BKN250
     FM300000 14008KT P6SM VCTS FEW090CB BKN150 BKN200
     FM300400 VRB06KT P6SM VCSH SCT100 BKN150 BKN200=



000
FTUS45 KPSR 292115 AAA
TAFIPL
TAF AMD
KIPL 292115Z 2921/3018 14010G18KT P6SM FEW100 SCT150 BKN200
     FM292200 12015KT P6SM VCTS SCT100CB BKN150 BKN250
     FM300200 14008KT P6SM VCSH SCT090 BKN120 BKN200=



000
FTUS45 KPSR 292111 AAA
TAFIWA
TAF AMD
KIWA 292111Z 2921/3018 24012KT P6SM SCT100 SCT150 BKN250
     FM300000 18012KT P6SM VCTS SCT080CB BKN120 BKN200
     FM300400 VRB06KT P6SM VCSH SCT080 BKN100 BKN180=



000
FTUS45 KPSR 292111 AAA
TAFIWA
TAF AMD
KIWA 292111Z 2921/3018 24012KT P6SM SCT100 SCT150 BKN250
     FM300000 18012KT P6SM VCTS SCT080CB BKN120 BKN200
     FM300400 VRB06KT P6SM VCSH SCT080 BKN100 BKN180=



000
FTUS45 KPSR 292109 AAA
TAFPHX
TAF AMD
KPHX 292109Z 2921/3018 26010KT P6SM FEW120 SCT150 BKN250
     FM300100 28012KT P6SM VCTS SCT080CB BKN120 BKN200
     FM300500 VRB06KT P6SM VCSH SCT080 BKN100 BKN180=



000
FTUS45 KPSR 291732
TAFIWA
TAF
KIWA 291732Z 2918/3018 24008KT P6SM VCSH SCT100 BKN150 BKN250
     FM300000 18012KT P6SM VCTS SCT080CB BKN120 BKN200
     FM300300 22010KT P6SM VCSH SCT080 BKN100 BKN180=



000
FTUS45 KPSR 291732
TAFBLH
TAF
KBLH 291732Z 2918/3018 19012G20KT P6SM SCT100 BKN150 BKN250
     FM300000 14008KT P6SM VCSH FEW090 SCT120 BKN200=



000
FTUS45 KPSR 291732
TAFPHX
TAF
KPHX 291732Z 2918/3018 26010KT P6SM VCSH FEW120 BKN150 BKN250
     FM300000 28012KT P6SM VCTS SCT080CB BKN120 BKN200
     FM300300 28012KT P6SM VCSH SCT080 BKN100 BKN180=



000
FTUS45 KPSR 291732
TAFIWA
TAF
KIWA 291732Z 2918/3018 24008KT P6SM VCSH SCT100 BKN150 BKN250
     FM300000 18012KT P6SM VCTS SCT080CB BKN120 BKN200
     FM300300 22010KT P6SM VCSH SCT080 BKN100 BKN180=



000
FTUS45 KPSR 291732
TAFIPL
TAF
KIPL 291732Z 2918/3018 14010G18KT P6SM VCTS SCT100CB BKN150 BKN200
      TEMPO 2918/2919 VRB10G20KT 6SM TSRA BKN090CB
     FM292100 12015G20KT P6SM SCT100 SCT150 BKN250
     FM300000 14008KT P6SM VCTS FEW090CB SCT120 BKN200=



000
FTUS45 KPSR 291522 AAA
TAFBLH
TAF AMD
KBLH 291522Z 2915/3012 20007KT P6SM FEW110 SCT150 BKN250
     FM291800 19012G22KT P6SM SCT100 BKN150 BKN250
     FM300000 20008KT P6SM VCSH FEW090 SCT120 BKN200=



000
FTUS45 KPSR 291520 AAA
TAFIPL
TAF AMD
KIPL 291520Z 2915/3012 14010KT P6SM VCTS SCT100CB BKN150 BKN200
      TEMPO 2915/2919 VRB10G20KT 6SM TSRA BKN090CB
     FM292100 12015G20KT P6SM SCT100 SCT150 BKN250
     FM300000 14008KT P6SM VCTS FEW090CB SCT120 BKN200=



000
FTUS45 KPSR 291513 AAA
TAFIWA
TAF AMD
KIWA 291513Z 2915/3012 13007KT P6SM VCSH SCT100 BKN150 BKN200
     FM291700 VRB05KT P6SM VCSH SCT100 BKN150 BKN250
     FM292000 28005KT P6SM VCSH FEW120 SCT150 BKN250
     FM300000 18012KT P6SM VCTS SCT080CB BKN120 BKN200
     FM300300 22010KT P6SM VCSH SCT080 BKN100 BKN180=



000
FTUS45 KPSR 291513 AAA
TAFIWA
TAF AMD
KIWA 291513Z 2915/3012 13007KT P6SM VCSH SCT100 BKN150 BKN200
     FM291700 VRB05KT P6SM VCSH SCT100 BKN150 BKN250
     FM292000 28005KT P6SM VCSH FEW120 SCT150 BKN250
     FM300000 18012KT P6SM VCTS SCT080CB BKN120 BKN200
     FM300300 22010KT P6SM VCSH SCT080 BKN100 BKN180=



000
FTUS45 KPSR 291513 AAA
TAFIWA
TAF AMD
KIWA 291513Z 2915/3012 13007KT P6SM VCSH SCT100 BKN150 BKN200
     FM291700 VRB05KT P6SM VCSH SCT100 BKN150 BKN250
     FM292000 28005KT P6SM VCSH FEW120 SCT150 BKN250
     FM300000 18012KT P6SM VCTS SCT080CB BKN120 BKN200
     FM300300 22010KT P6SM VCSH SCT080 BKN100 BKN180=



000
FTUS45 KPSR 291513 AAA
TAFIWA
TAF AMD
KIWA 291513Z 2915/3012 13007KT P6SM VCSH SCT100 BKN150 BKN200
     FM291700 VRB05KT P6SM VCSH SCT100 BKN150 BKN250
     FM292000 28005KT P6SM VCSH FEW120 SCT150 BKN250
     FM300000 18012KT P6SM VCTS SCT080CB BKN120 BKN200
     FM300300 22010KT P6SM VCSH SCT080 BKN100 BKN180=



000
FTUS45 KPSR 291509 AAA
TAFPHX
TAF AMD
KPHX 291509Z 2915/3012 16007KT P6SM VCSH SCT120 BKN150 BKN200
     FM291700 VRB05KT P6SM VCSH FEW120 BKN150 BKN250
     FM292000 24005KT P6SM VCSH FEW120 BKN150 BKN250
     FM300000 16012KT P6SM VCTS SCT080CB BKN120 BKN200
     FM300300 28012KT P6SM VCSH SCT080 BKN100 BKN180=



000
FTUS45 KPSR 291136
TAFBLH
TAF
KBLH 291136Z 2912/3012 20007KT P6SM FEW110
     FM291500 17016G24KT P6SM SCT100 SCT200
     FM300000 20008KT P6SM VCSH FEW090 SCT120 BKN200=



000
FTUS45 KPSR 291136
TAFPHX
TAF
KPHX 291136Z 2912/3012 11007KT P6SM SCT100 BKN140 BKN200
     FM291700 24010KT P6SM VCSH SCT090 BKN120 BKN200
     FM300000 16012KT P6SM VCTS SCT080CB BKN120 BKN200
     FM300300 28012KT P6SM VCSH SCT080 BKN100 BKN180=



000
FTUS45 KPSR 291136
TAFIWA
TAF
KIWA 291136Z 2912/3012 13007KT P6SM SCT100 BKN200
     FM291800 25009KT P6SM VCSH SCT090 BKN120 BKN200
     FM300000 18012KT P6SM VCTS SCT080CB BKN120 BKN200
     FM300300 22010KT P6SM VCSH SCT080 BKN100 BKN180
      AMD LTD TO CLD VIS AND WIND TIL 291300=



000
FTUS45 KPSR 291136
TAFIPL
TAF
KIPL 291136Z 2912/3012 14010KT P6SM FEW110
     FM291700 12015G20KT P6SM SCT100 SCT200
     FM300000 14008KT P6SM VCSH FEW090 BKN120 BKN200=



000
FTUS45 KPSR 291136
TAFIWA
TAF
KIWA 291136Z 2912/3012 13007KT P6SM SCT100 BKN200
     FM291800 25009KT P6SM VCSH SCT090 BKN120 BKN200
     FM300000 18012KT P6SM VCTS SCT080CB BKN120 BKN200
     FM300300 22010KT P6SM VCSH SCT080 BKN100 BKN180
      AMD LTD TO CLD VIS AND WIND TIL 291300=



000
FTUS45 KPSR 291136
TAFBLH
TAF
KBLH 291136Z 2912/3012 20007KT P6SM FEW110
     FM291500 17016G24KT P6SM SCT100 SCT200
     FM300000 20008KT P6SM VCSH FEW090 SCT120 BKN200=



000
FTUS45 KPSR 291136
TAFPHX
TAF
KPHX 291136Z 2912/3012 11007KT P6SM SCT100 BKN140 BKN200
     FM291700 24010KT P6SM VCSH SCT090 BKN120 BKN200
     FM300000 16012KT P6SM VCTS SCT080CB BKN120 BKN200
     FM300300 28012KT P6SM VCSH SCT080 BKN100 BKN180=



000
FTUS45 KPSR 291136
TAFIWA
TAF
KIWA 291136Z 2912/3012 13007KT P6SM SCT100 BKN200
     FM291800 25009KT P6SM VCSH SCT090 BKN120 BKN200
     FM300000 18012KT P6SM VCTS SCT080CB BKN120 BKN200
     FM300300 22010KT P6SM VCSH SCT080 BKN100 BKN180
      AMD LTD TO CLD VIS AND WIND TIL 291300=



000
FTUS45 KPSR 291136
TAFIWA
TAF
KIWA 291136Z 2912/3012 13007KT P6SM SCT100 BKN200
     FM291800 25009KT P6SM VCSH SCT090 BKN120 BKN200
     FM300000 18012KT P6SM VCTS SCT080CB BKN120 BKN200
     FM300300 22010KT P6SM VCSH SCT080 BKN100 BKN180
      AMD LTD TO CLD VIS AND WIND TIL 291300=



000
FTUS45 KPSR 291136
TAFIPL
TAF
KIPL 291136Z 2912/3012 14010KT P6SM FEW110
     FM291700 12015G20KT P6SM SCT100 SCT200
     FM300000 14008KT P6SM VCSH FEW090 BKN120 BKN200=



000
FTUS45 KPSR 290848 AAA
TAFPHX
TAF AMD
KPHX 290848Z 2909/3006 12012KT P6SM SCT100 BKN200
     FM291000 11007KT P6SM SCT100 SCT140 BKN200
     FM291600 24010KT P6SM VCSH SCT090 SCT120 BKN200
     FM300000 12012KT P6SM VCTS SCT080CB BKN120 BKN200=



000
FTUS45 KPSR 290848 AAA
TAFPHX
TAF AMD
KPHX 290848Z 2909/3006 12012KT P6SM SCT100 BKN200
     FM291000 11007KT P6SM SCT100 SCT140 BKN200
     FM291600 24010KT P6SM VCSH SCT090 SCT120 BKN200
     FM300000 12012KT P6SM VCTS SCT080CB BKN120 BKN200=



000
FTUS45 KPSR 290545
TAFIWA
TAF
KIWA 290545Z 2906/3006 13007KT P6SM SCT100 BKN200
      TEMPO 2906/2907 18018G28KT 4SM BLDU
     FM291800 25009KT P6SM VCSH SCT090 SCT120 BKN200
     FM300000 18012KT P6SM VCTS SCT080CB BKN120 BKN200
      AMD LTD TO CLD VIS AND WIND TIL 291300=



000
FTUS45 KPSR 290545
TAFPHX
TAF
KPHX 290545Z 2906/3006 12012KT P6SM SCT100 BKN200
      TEMPO 2906/2907 17015G25KT 6SM BLDU
     FM291000 11007KT P6SM SCT100 BKN200
     FM291600 24010KT P6SM VCSH SCT090 SCT120 BKN200
     FM300000 12012KT P6SM VCTS SCT080CB BKN120 BKN200=



000
FTUS45 KPSR 290545
TAFIPL
TAF
KIPL 290545Z 2906/3006 14010KT P6SM FEW110
     FM291700 12015KT P6SM SCT100 SCT200
     FM300000 14008KT P6SM VCSH FEW090 SCT120 BKN200=



000
FTUS45 KPSR 290545
TAFBLH
TAF
KBLH 290545Z 2906/3006 20007KT P6SM FEW110
     FM291600 17012KT P6SM SCT100 SCT200
     FM300000 20008KT P6SM VCSH FEW090 SCT120 BKN200=



000
FTUS45 KPSR 290545
TAFIWA
TAF
KIWA 290545Z 2906/3006 13007KT P6SM SCT100 BKN200
      TEMPO 2906/2907 18018G28KT 4SM BLDU
     FM291800 25009KT P6SM VCSH SCT090 SCT120 BKN200
     FM300000 18012KT P6SM VCTS SCT080CB BKN120 BKN200
      AMD LTD TO CLD VIS AND WIND TIL 291300=



000
FTUS45 KPSR 290447 AAB
TAFPHX
TAF AMD
KPHX 290447Z 2905/2924 12015KT 6SM DU SCT100 BKN200
      TEMPO 2905/2906 17020G35KT 5SM BLDU
     FM291000 11007KT P6SM SCT100 BKN200
     FM291600 28008KT P6SM SCT100 SCT150 BKN200=



000
FTUS45 KPSR 290400 AAC
TAFIWA
TAF AMD
KIWA 290400Z 2904/2924 13007KT P6SM SCT110 BKN200
      TEMPO 2904/2905 18018G28KT 4SM BLDU BKN150
     FM291800 28009KT P6SM SCT100 SCT150 BKN200
      AMD LTD TO CLD VIS AND WIND TIL 291300=



000
FTUS45 KPSR 290400 AAC
TAFIWA
TAF AMD
KIWA 290400Z 2904/2924 13007KT P6SM SCT110 BKN200
      TEMPO 2904/2905 18018G28KT 4SM BLDU BKN150
     FM291800 28009KT P6SM SCT100 SCT150 BKN200
      AMD LTD TO CLD VIS AND WIND TIL 291300=



000
FTUS45 KPSR 290344 AAB
TAFIWA
TAF AMD
KIWA 290344Z 2904/2924 13007KT P6SM SCT110 BKN200
      TEMPO 2904/2906 18018G28KT 1SM BLDU BKN150
     FM291800 28009KT P6SM SCT100 SCT150 BKN200
      AMD LTD TO CLD VIS AND WIND TIL 291300=



000
FTUS45 KPSR 290344 AAB
TAFIWA
TAF AMD
KIWA 290344Z 2904/2924 13007KT P6SM SCT110 BKN200
      TEMPO 2904/2906 18018G28KT 1SM BLDU BKN150
     FM291800 28009KT P6SM SCT100 SCT150 BKN200
      AMD LTD TO CLD VIS AND WIND TIL 291300=



000
FTUS45 KPSR 290329 AAA
TAFIWA
TAF AMD
KIWA 290329Z 2903/2924 13007KT P6SM SCT110 BKN200
      TEMPO 2903/2906 18018G28KT 5SM BLDU
     FM291800 28009KT P6SM SCT100 SCT150 BKN200
      AMD LTD TO CLD VIS AND WIND TIL 291300=



000
FTUS45 KPSR 290329 AAA
TAFIWA
TAF AMD
KIWA 290329Z 2903/2924 13007KT P6SM SCT110 BKN200
      TEMPO 2903/2906 18018G28KT 5SM BLDU
     FM291800 28009KT P6SM SCT100 SCT150 BKN200
      AMD LTD TO CLD VIS AND WIND TIL 291300=



000
FTUS45 KPSR 290329 AAA
TAFIWA
TAF AMD
KIWA 290329Z 2903/2924 13007KT P6SM SCT110 BKN200
      TEMPO 2903/2906 18018G28KT 5SM BLDU
     FM291800 28009KT P6SM SCT100 SCT150 BKN200
      AMD LTD TO CLD VIS AND WIND TIL 291300=



000
FTUS45 KPSR 290329 AAA
TAFIWA
TAF AMD
KIWA 290329Z 2903/2924 13007KT P6SM SCT110 BKN200
      TEMPO 2903/2906 18018G28KT 5SM BLDU
     FM291800 28009KT P6SM SCT100 SCT150 BKN200
      AMD LTD TO CLD VIS AND WIND TIL 291300=



000
FTUS45 KPSR 290310 AAA
TAFPHX
TAF AMD
KPHX 290310Z 2903/2924 20006KT P6SM SCT110 BKN200
     FM290400 12007KT P6SM SCT100 BKN200
      TEMPO 2904/2906 15012G20KT
     FM291800 28008KT P6SM SCT100 SCT150 BKN200=



000
FTUS45 KPSR 282341
TAFIPL
TAF
KIPL 282341Z 2900/2924 14006KT P6SM FEW110
     FM291700 12010KT P6SM FEW100 SCT200=



000
FTUS45 KPSR 282341
TAFIWA
TAF
KIWA 282341Z 2900/2924 29008KT P6SM SCT110 SCT200
     FM290300 23012KT 5SM BLDU SCT110 BKN200
     FM290700 13008KT P6SM SCT100 BKN150
     FM291800 28009KT P6SM SCT100 SCT150 BKN200
      AMD LTD TO CLD VIS AND WIND 2903/2913=



000
FTUS45 KPSR 282341
TAFBLH
TAF
KBLH 282341Z 2900/2924 20007KT P6SM FEW110
     FM291600 17012KT P6SM FEW100 SCT200=



000
FTUS45 KPSR 282341
TAFIWA
TAF
KIWA 282341Z 2900/2924 29008KT P6SM SCT110 SCT200
     FM290300 23012KT 5SM BLDU SCT110 BKN200
     FM290700 13008KT P6SM SCT100 BKN150
     FM291800 28009KT P6SM SCT100 SCT150 BKN200
      AMD LTD TO CLD VIS AND WIND 2903/2913=



000
FTUS45 KPSR 282341
TAFPHX
TAF
KPHX 282341Z 2900/2924 29008KT P6SM SCT110 SCT200
     FM290300 23012KT 6SM BLDU SCT110 BKN200
     FM290800 15008KT P6SM SCT100 BKN150
     FM291800 28008KT P6SM SCT100 SCT150 BKN200=



000
FTUS45 KPSR 282341
TAFIPL
TAF
KIPL 282341Z 2900/2924 14006KT P6SM FEW110
     FM291700 12010KT P6SM FEW100 SCT200=



000
FTUS45 KPSR 282341
TAFIWA
TAF
KIWA 282341Z 2900/2924 29008KT P6SM SCT110 SCT200
     FM290300 23012KT 5SM BLDU SCT110 BKN200
     FM290700 13008KT P6SM SCT100 BKN150
     FM291800 28009KT P6SM SCT100 SCT150 BKN200
      AMD LTD TO CLD VIS AND WIND 2903/2913=



000
FTUS45 KPSR 282341
TAFPHX
TAF
KPHX 282341Z 2900/2924 29008KT P6SM SCT110 SCT200
     FM290300 23012KT 6SM BLDU SCT110 BKN200
     FM290800 15008KT P6SM SCT100 BKN150
     FM291800 28008KT P6SM SCT100 SCT150 BKN200=



000
FTUS45 KPSR 282341
TAFBLH
TAF
KBLH 282341Z 2900/2924 20007KT P6SM FEW110
     FM291600 17012KT P6SM FEW100 SCT200=



000
FTUS45 KPSR 282341
TAFIWA
TAF
KIWA 282341Z 2900/2924 29008KT P6SM SCT110 SCT200
     FM290300 23012KT 5SM BLDU SCT110 BKN200
     FM290700 13008KT P6SM SCT100 BKN150
     FM291800 28009KT P6SM SCT100 SCT150 BKN200
      AMD LTD TO CLD VIS AND WIND 2903/2913=



000
FTUS45 KPSR 282118 AAB
TAFIWA
TAF AMD
KIWA 282118Z 2821/2918 29007KT P6SM SCT120 SCT200
     FM290500 17012KT 5SM BLDU BKN150
     FM290800 14005KT P6SM BKN150=



000
FTUS45 KPSR 282117 AAD
TAFPHX
TAF AMD
KPHX 282117Z 2821/2918 29008KT P6SM SCT120 SCT200
     FM290300 25010KT P6SM BKN150
     FM290600 14005KT P6SM BKN150=



000
FTUS45 KPSR 282003 AAC
TAFPHX
TAF AMD
KPHX 282003Z 2820/2918 VRB03KT P6SM SCT120 SCT200
     FM282100 29008KT P6SM SCT120 SCT200
     FM290300 25010KT P6SM BKN150
     FM290700 14005KT P6SM BKN150=



000
FTUS45 KPSR 282003 AAC
TAFPHX
TAF AMD
KPHX 282003Z 2820/2918 VRB03KT P6SM SCT120 SCT200
     FM282100 29008KT P6SM SCT120 SCT200
     FM290300 25010KT P6SM BKN150
     FM290700 14005KT P6SM BKN150=



000
FTUS45 KPSR 281832 AAB
TAFPHX
TAF AMD
KPHX 281832Z 2819/2918 29008KT P6SM SCT120 SCT200
     FM290300 25010KT P6SM BKN150
     FM290700 14005KT P6SM BKN150=



000
FTUS45 KPSR 281832 AAA
TAFIWA
TAF AMD
KIWA 281832Z 2819/2918 29007KT P6SM SCT120 SCT200
     FM290600 17012KT 5SM BLDU BKN150
     FM290800 14005KT P6SM BKN150=



000
FTUS45 KPSR 281832 AAB
TAFPHX
TAF AMD
KPHX 281832Z 2819/2918 29008KT P6SM SCT120 SCT200
     FM290300 25010KT P6SM BKN150
     FM290700 14005KT P6SM BKN150=



000
FTUS45 KPSR 281829 AAA
TAFPHX
TAF AMD
KPHX 281829Z 2818/2918 VRB04KT P6SM FEW150 SCT200
     FM281900 29008KT P6SM SCT120 SCT200
     FM290300 25010KT P6SM BKN150
     FM291000 13005KT P6SM BKN150=



000
FTUS45 KPSR 281729
TAFBLH
TAF
KBLH 281729Z 2818/2918 18007KT P6SM SKC=



000
FTUS45 KPSR 281729
TAFPHX
TAF
KPHX 281729Z 2818/2918 VRB04KT P6SM FEW150 SCT200
     FM281900 29008KT P6SM SCT120 SCT200
     FM290600 18010KT P6SM BKN150
     FM290900 13005KT P6SM BKN120=



000
FTUS45 KPSR 281729
TAFIWA
TAF
KIWA 281729Z 2818/2918 29007KT P6SM SCT110 SCT200
     FM290500 19012KT 5SM BLDU BKN150
     FM290800 14005KT P6SM BKN120=



000
FTUS45 KPSR 281729
TAFPHX
TAF
KPHX 281729Z 2818/2918 VRB04KT P6SM FEW150 SCT200
     FM281900 29008KT P6SM SCT120 SCT200
     FM290600 18010KT P6SM BKN150
     FM290900 13005KT P6SM BKN120=



000
FTUS45 KPSR 281729
TAFIPL
TAF
KIPL 281729Z 2818/2918 14005KT P6SM SKC=



000
FTUS45 KPSR 281729
TAFBLH
TAF
KBLH 281729Z 2818/2918 18007KT P6SM SKC=



000
FTUS45 KPSR 281729
TAFIWA
TAF
KIWA 281729Z 2818/2918 29007KT P6SM SCT110 SCT200
     FM290500 19012KT 5SM BLDU BKN150
     FM290800 14005KT P6SM BKN120=



000
FTUS45 KPSR 281729
TAFIWA
TAF
KIWA 281729Z 2818/2918 29007KT P6SM SCT110 SCT200
     FM290500 19012KT 5SM BLDU BKN150
     FM290800 14005KT P6SM BKN120=



000
FTUS45 KPSR 281729
TAFIWA
TAF
KIWA 281729Z 2818/2918 29007KT P6SM SCT110 SCT200
     FM290500 19012KT 5SM BLDU BKN150
     FM290800 14005KT P6SM BKN120=



000
FTUS45 KPSR 281729
TAFIPL
TAF
KIPL 281729Z 2818/2918 14005KT P6SM SKC=



000
FTUS45 KPSR 281615 AAA
TAFIWA
TAF AMD
KIWA 281615Z 2816/2912 29003KT P6SM FEW150 SCT200
     FM281800 29007KT P6SM SCT110 SCT200
     FM290500 19012KT 5SM BLDU BKN150
     FM290800 14005KT P6SM BKN120=



000
FTUS45 KPSR 281506 AAA
TAFPHX
TAF AMD
KPHX 281506Z 2815/2912 VRB04KT P6SM SCT150
     FM281900 29008KT P6SM SCT120 SCT200
     FM290600 18010KT P6SM BKN150
     FM290900 13005KT P6SM BKN120=



000
FTUS45 KPSR 281506 AAA
TAFPHX
TAF AMD
KPHX 281506Z 2815/2912 VRB04KT P6SM SCT150
     FM281900 29008KT P6SM SCT120 SCT200
     FM290600 18010KT P6SM BKN150
     FM290900 13005KT P6SM BKN120=



000
FTUS45 KPSR 281131
TAFIWA
TAF
KIWA 281131Z 2812/2912 12004KT P6SM SCT200
     FM281800 29007KT P6SM SCT110 SCT200
     FM290500 19012KT 5SM BLDU BKN150
     FM290800 14005KT P6SM BKN120
      AMD LTD TO CLD VIS AND WIND TIL 281300=



000
FTUS45 KPSR 281131
TAFIWA
TAF
KIWA 281131Z 2812/2912 12004KT P6SM SCT200
     FM281800 29007KT P6SM SCT110 SCT200
     FM290500 19012KT 5SM BLDU BKN150
     FM290800 14005KT P6SM BKN120
      AMD LTD TO CLD VIS AND WIND TIL 281300=



000
FTUS45 KPSR 281131
TAFPHX
TAF
KPHX 281131Z 2812/2912 29005KT P6SM SCT200
     FM281300 12004KT P6SM SCT200
     FM281900 29008KT P6SM SCT120 SCT200
     FM290600 18010KT P6SM BKN150
     FM290900 13005KT P6SM BKN120=



000
FTUS45 KPSR 281131
TAFIPL
TAF
KIPL 281131Z 2812/2912 14005KT P6SM SKC=



000
FTUS45 KPSR 281131
TAFBLH
TAF
KBLH 281131Z 2812/2912 18007KT P6SM SKC=



000
FTUS45 KPSR 281131
TAFIWA
TAF
KIWA 281131Z 2812/2912 12004KT P6SM SCT200
     FM281800 29007KT P6SM SCT110 SCT200
     FM290500 19012KT 5SM BLDU BKN150
     FM290800 14005KT P6SM BKN120
      AMD LTD TO CLD VIS AND WIND TIL 281300=



000
FTUS45 KPSR 281131
TAFPHX
TAF
KPHX 281131Z 2812/2912 29005KT P6SM SCT200
     FM281300 12004KT P6SM SCT200
     FM281900 29008KT P6SM SCT120 SCT200
     FM290600 18010KT P6SM BKN150
     FM290900 13005KT P6SM BKN120=



000
FTUS45 KPSR 280859 AAA
TAFPHX
TAF AMD
KPHX 280859Z 2809/2906 26008KT P6SM SCT200
     FM281200 10004KT P6SM SCT200
     FM281900 29008KT P6SM SCT110 SCT200=



000
FTUS45 KPSR 280859 AAA
TAFPHX
TAF AMD
KPHX 280859Z 2809/2906 26008KT P6SM SCT200
     FM281200 10004KT P6SM SCT200
     FM281900 29008KT P6SM SCT110 SCT200=



000
FTUS45 KPSR 280520
TAFIWA
TAF
KIWA 280520Z 2806/2906 VRB05KT P6SM SCT200
     FM280900 12006KT P6SM BKN200
     FM281800 29007KT P6SM SCT110 SCT200
      AMD LTD TO CLD VIS AND WIND TIL 281300=



000
FTUS45 KPSR 280520
TAFPHX
TAF
KPHX 280520Z 2806/2906 26008KT P6SM SCT200
     FM281100 10006KT P6SM SCT200
     FM281800 29008KT P6SM SCT110 SCT200=



000
FTUS45 KPSR 280520
TAFIWA
TAF
KIWA 280520Z 2806/2906 VRB05KT P6SM SCT200
     FM280900 12006KT P6SM BKN200
     FM281800 29007KT P6SM SCT110 SCT200
      AMD LTD TO CLD VIS AND WIND TIL 281300=



000
FTUS45 KPSR 280520
TAFIPL
TAF
KIPL 280520Z 2806/2906 25007KT P6SM SKC
     FM281100 13006KT P6SM SKC=



000
FTUS45 KPSR 280520
TAFBLH
TAF
KBLH 280520Z 2806/2906 20007KT P6SM SKC
     FM281000 VRB04KT P6SM SKC
     FM281800 17010KT P6SM FEW110=



000
FTUS45 KPSR 280259 AAA
TAFPHX
TAF AMD
KPHX 280259Z 2803/2824 26009KT P6SM FEW110 SCT200
     FM281100 10006KT P6SM FEW110 SCT200
     FM281800 29007KT P6SM SCT110 SCT200=



000
FTUS45 KPSR 272339
TAFIPL
TAF
KIPL 272339Z 2800/2824 25007KT P6SM SKC
     FM280900 13006KT P6SM SKC=



000
FTUS45 KPSR 272339
TAFIWA
TAF
KIWA 272339Z 2800/2824 29008KT P6SM FEW110 SCT200
     FM280600 12005KT P6SM FEW110 BKN200
     FM281800 29007KT P6SM SCT110 SCT200
      AMD LTD TO CLD VIS AND WIND 2803/2813=



000
FTUS45 KPSR 272339
TAFPHX
TAF
KPHX 272339Z 2800/2824 26006KT P6SM FEW110 SCT200
      TEMPO 2800/2803 29010G16KT
     FM281100 09006KT P6SM FEW110 SCT200
     FM281800 29007KT P6SM SCT110 SCT200=



000
FTUS45 KPSR 272339
TAFBLH
TAF
KBLH 272339Z 2800/2824 20006KT P6SM SKC
      TEMPO 2800/2801 21010G16KT
     FM281100 VRB04KT P6SM SKC
     FM281600 17010KT P6SM FEW110=



000
FTUS45 KPSR 272339
TAFIWA
TAF
KIWA 272339Z 2800/2824 29008KT P6SM FEW110 SCT200
     FM280600 12005KT P6SM FEW110 BKN200
     FM281800 29007KT P6SM SCT110 SCT200
      AMD LTD TO CLD VIS AND WIND 2803/2813=



    US Dept of Commerce
    National Oceanic and Atmospheric Administration
    National Weather Service
    1325 East West Highway
    Silver Spring, MD 20910
    Page Author: NWS Internet Services Team
Disclaimer
Information Quality
Credits
Glossary
Privacy Policy
Freedom of Information Act (FOIA)
About Us
Career Opportunities